createdAt,value
2019-01-23T00:00:49.212Z,36.17
2019-01-23T00:03:15.112Z,34.87
2019-01-23T00:05:40.981Z,33.33
2019-01-23T00:08:06.897Z,33.13
2019-01-23T00:10:32.821Z,32.53
2019-01-23T00:12:58.702Z,33.50
2019-01-23T00:15:24.563Z,33.33
2019-01-23T00:17:50.446Z,33.70
2019-01-23T00:20:16.362Z,33.43
2019-01-23T00:22:42.221Z,34.73
2019-01-23T00:25:12.160Z,35.07
2019-01-23T00:27:38.053Z,35.03
2019-01-23T00:30:09.851Z,36.37
2019-01-23T00:32:35.774Z,34.03
2019-01-23T00:35:01.636Z,35.40
2019-01-23T00:37:27.501Z,34.67
2019-01-23T00:39:53.422Z,35.23
2019-01-23T00:42:19.313Z,34.43
2019-01-23T00:44:45.167Z,35.17
2019-01-23T00:47:11.038Z,34.47
2019-01-23T00:49:37.075Z,34.53
2019-01-23T00:52:03.058Z,33.18
2019-01-23T00:54:29.029Z,34.77
2019-01-23T00:56:54.929Z,34.03
2019-01-23T00:59:20.828Z,35.00
2019-01-23T01:01:46.727Z,33.10
2019-01-23T01:04:12.593Z,33.87
2019-01-23T01:06:38.488Z,33.57
2019-01-23T01:09:07.001Z,32.73
2019-01-23T01:11:32.874Z,32.67
2019-01-23T01:13:58.758Z,33.00
2019-01-23T01:16:24.674Z,32.83
2019-01-23T01:18:50.528Z,32.10
2019-01-23T01:21:16.524Z,32.83
2019-01-23T01:23:42.448Z,32.80
2019-01-23T01:26:08.504Z,32.63
2019-01-23T01:28:34.389Z,32.42
2019-01-23T01:31:00.331Z,32.00
2019-01-23T01:33:26.211Z,31.80
2019-01-23T01:35:52.078Z,31.40
2019-01-23T01:38:17.959Z,30.77
2019-01-23T01:40:43.965Z,30.07
2019-01-23T01:43:09.877Z,28.40
2019-01-23T01:45:35.733Z,29.73
2019-01-23T01:48:01.689Z,29.13
2019-01-23T01:50:27.573Z,28.57
2019-01-23T01:52:53.438Z,30.60
2019-01-23T01:55:19.306Z,30.87
2019-01-23T01:57:45.323Z,29.23
2019-01-23T02:00:19.298Z,29.27
2019-01-23T02:02:45.184Z,29.27
2019-01-23T02:05:11.053Z,28.73
2019-01-23T02:07:36.948Z,26.73
2019-01-23T02:10:06.485Z,26.57
2019-01-23T02:12:32.368Z,25.90
2019-01-23T02:14:58.218Z,25.63
2019-01-23T02:17:24.458Z,24.90
2019-01-23T02:19:50.353Z,25.68
2019-01-23T02:22:16.233Z,25.63
2019-01-23T02:24:42.128Z,25.53
2019-01-23T02:27:08.065Z,24.20
2019-01-23T02:29:33.950Z,24.87
2019-01-23T02:31:59.877Z,25.50
2019-01-23T02:34:25.744Z,24.83
2019-01-23T02:36:51.768Z,25.20
2019-01-23T02:39:17.691Z,26.20
2019-01-23T02:41:43.563Z,26.97
2019-01-23T02:44:09.478Z,28.03
2019-01-23T02:46:35.471Z,28.93
2019-01-23T02:49:01.385Z,28.43
2019-01-23T02:51:27.313Z,29.70
2019-01-23T02:53:53.139Z,29.37
2019-01-23T02:56:19.039Z,29.43
2019-01-23T02:58:44.933Z,29.70
2019-01-23T03:01:10.797Z,28.90
2019-01-23T03:03:36.774Z,27.60
2019-01-23T03:06:02.743Z,28.10
2019-01-23T03:08:28.604Z,27.33
2019-01-23T03:10:54.651Z,29.23
2019-01-23T03:13:20.632Z,27.23
2019-01-23T03:15:46.531Z,27.93
2019-01-23T03:18:12.434Z,28.90
2019-01-23T03:20:38.334Z,27.73
2019-01-23T03:23:04.198Z,28.17
2019-01-23T03:25:30.216Z,27.83
2019-01-23T03:27:59.739Z,27.93
2019-01-23T03:30:25.764Z,27.83
2019-01-23T03:32:51.647Z,27.73
2019-01-23T03:35:17.560Z,27.57
2019-01-23T03:37:43.444Z,27.13
2019-01-23T03:40:15.138Z,27.50
2019-01-23T03:42:41.029Z,27.17
2019-01-23T03:45:09.195Z,26.57
2019-01-23T03:47:35.116Z,26.63
2019-01-23T03:50:01.129Z,26.43
2019-01-23T03:52:27.057Z,25.40
2019-01-23T03:54:53.138Z,27.47
2019-01-23T03:57:19.188Z,27.30
2019-01-23T03:59:45.165Z,25.97
2019-01-23T04:02:11.055Z,25.50
2019-01-23T04:04:36.954Z,26.07
2019-01-23T04:07:02.881Z,27.63
2019-01-23T04:09:28.744Z,27.07
2019-01-23T04:11:54.630Z,26.43
2019-01-23T04:14:20.536Z,26.77
2019-01-23T04:16:46.414Z,27.23
2019-01-23T04:19:12.325Z,25.97
2019-01-23T04:21:38.207Z,26.67
2019-01-23T04:24:04.075Z,26.90
2019-01-23T04:26:30.093Z,25.60
2019-01-23T04:28:56.106Z,26.53
2019-01-23T04:31:21.972Z,26.67
2019-01-23T04:33:47.848Z,27.50
2019-01-23T04:36:13.731Z,27.30
2019-01-23T04:38:39.722Z,27.77
2019-01-23T04:41:05.636Z,25.93
2019-01-23T04:43:31.594Z,25.40
2019-01-23T04:45:57.456Z,25.97
2019-01-23T04:48:23.335Z,24.90
2019-01-23T04:51:00.318Z,25.70
2019-01-23T04:53:36.879Z,26.17
2019-01-23T04:56:02.966Z,25.80
2019-01-23T04:58:28.870Z,25.00
2019-01-23T05:00:54.774Z,26.97
2019-01-23T05:03:20.656Z,26.77
2019-01-23T05:05:46.523Z,26.67
2019-01-23T05:08:12.404Z,28.07
2019-01-23T05:10:38.416Z,27.43
2019-01-23T05:13:04.390Z,28.07
2019-01-23T05:15:30.242Z,28.40
2019-01-23T05:17:56.124Z,27.03
2019-01-23T05:20:22.224Z,29.63
2019-01-23T05:22:48.204Z,30.37
2019-01-23T05:25:14.177Z,29.87
2019-01-23T05:27:40.316Z,28.97
2019-01-23T05:30:18.830Z,27.47
2019-01-23T05:32:44.743Z,28.07
2019-01-23T05:35:10.606Z,26.90
2019-01-23T05:37:36.573Z,27.13
2019-01-23T05:40:05.712Z,27.67
2019-01-23T05:42:31.651Z,28.53
2019-01-23T05:44:57.508Z,29.80
2019-01-23T05:47:23.380Z,28.40
2019-01-23T05:49:49.369Z,28.70
2019-01-23T05:52:15.241Z,28.40
2019-01-23T05:54:41.112Z,27.27
2019-01-23T05:57:07.002Z,27.03
2019-01-23T05:59:32.954Z,27.27
2019-01-23T06:01:58.986Z,26.67
2019-01-23T06:04:24.847Z,27.70
2019-01-23T06:06:50.736Z,27.87
2019-01-23T06:09:16.640Z,27.40
2019-01-23T06:11:42.529Z,27.73
2019-01-23T06:14:08.377Z,27.30
2019-01-23T06:16:34.274Z,28.27
2019-01-23T06:19:00.184Z,28.70
2019-01-23T06:21:26.062Z,25.47
2019-01-23T06:23:52.049Z,27.17
2019-01-23T06:26:17.958Z,26.30
2019-01-23T06:28:43.821Z,27.07
2019-01-23T06:31:13.558Z,27.10
2019-01-23T06:33:39.530Z,26.63
2019-01-23T06:36:05.466Z,27.50
2019-01-23T06:38:31.369Z,27.67
2019-01-23T06:40:57.317Z,28.00
2019-01-23T06:43:23.321Z,28.23
2019-01-23T06:45:49.308Z,28.93
2019-01-23T06:48:15.230Z,30.43
2019-01-23T06:50:41.116Z,30.20
2019-01-23T06:53:13.808Z,30.07
2019-01-23T06:55:35.170Z,30.33
2019-01-23T06:58:01.024Z,29.60
2019-01-23T07:00:26.959Z,29.07
2019-01-23T07:02:53.023Z,29.97
2019-01-23T07:05:19.231Z,31.13
2019-01-23T07:07:45.188Z,30.53
2019-01-23T07:10:15.219Z,30.03
2019-01-23T07:12:41.163Z,30.60
2019-01-23T07:15:09.468Z,30.33
2019-01-23T07:17:35.406Z,30.23
2019-01-23T07:20:01.331Z,29.50
2019-01-23T07:22:27.219Z,30.97
2019-01-23T07:24:53.208Z,29.93
2019-01-23T07:27:19.222Z,29.67
2019-01-23T07:29:45.114Z,30.97
2019-01-23T07:32:11.196Z,31.43
2019-01-23T07:34:37.230Z,32.75
2019-01-23T07:37:03.112Z,32.33
2019-01-23T07:39:28.978Z,30.87
2019-01-23T07:41:54.852Z,32.13
2019-01-23T07:44:20.718Z,30.83
2019-01-23T07:46:46.604Z,31.23
2019-01-23T07:49:12.566Z,33.63
2019-01-23T07:51:38.431Z,32.93
2019-01-23T07:54:04.372Z,32.97
2019-01-23T07:56:30.233Z,32.27
2019-01-23T07:58:57.996Z,31.63
2019-01-23T08:01:27.747Z,32.43
2019-01-23T08:03:53.606Z,33.30
2019-01-23T08:06:19.466Z,34.10
2019-01-23T08:08:45.385Z,33.93
2019-01-23T08:11:11.258Z,34.43
2019-01-23T08:13:37.107Z,33.40
2019-01-23T08:16:03.027Z,35.33
2019-01-23T08:18:28.911Z,35.23
2019-01-23T08:20:54.762Z,36.17
2019-01-23T08:23:20.684Z,35.87
2019-01-23T08:25:46.603Z,35.57
2019-01-23T08:28:12.454Z,35.77
2019-01-23T08:30:40.749Z,36.60
2019-01-23T08:33:10.028Z,37.20
2019-01-23T08:35:35.882Z,37.13
2019-01-23T08:38:01.857Z,37.53
2019-01-23T08:40:27.743Z,36.60
2019-01-23T08:42:53.616Z,36.40
2019-01-23T08:45:19.623Z,37.23
2019-01-23T08:47:45.488Z,35.63
2019-01-23T08:50:29.955Z,36.37
2019-01-23T08:52:55.871Z,42.20
2019-01-23T08:55:22.938Z,37.63
2019-01-23T08:57:49.167Z,38.97
2019-01-23T09:00:16.033Z,35.77
2019-01-23T09:02:41.905Z,36.17
2019-01-23T09:05:08.286Z,36.73
2019-01-23T09:07:34.183Z,35.90
2019-01-23T09:10:00.274Z,36.20
2019-01-23T09:12:26.265Z,38.43
2019-01-23T09:14:52.237Z,37.07
2019-01-23T09:17:18.261Z,40.73
2019-01-23T09:19:44.157Z,38.80
2019-01-23T09:22:10.054Z,37.90
2019-01-23T09:24:35.935Z,38.90
2019-01-23T09:27:01.845Z,41.63
2019-01-23T09:29:27.728Z,40.07
2019-01-23T09:32:15.685Z,40.07
2019-01-23T09:35:12.516Z,40.70
2019-01-23T09:37:45.060Z,40.27
2019-01-23T09:40:23.547Z,40.20
2019-01-23T09:43:02.392Z,41.00
2019-01-23T09:45:32.099Z,42.53
2019-01-23T09:48:14.017Z,41.93
2019-01-23T09:51:06.847Z,42.17
2019-01-23T09:53:36.531Z,41.73
2019-01-23T09:56:02.685Z,44.57
2019-01-23T09:58:28.542Z,41.30
2019-01-23T10:00:59.758Z,43.13
2019-01-23T10:03:23.099Z,44.83
2019-01-23T10:05:49.634Z,45.17
2019-01-23T10:08:15.554Z,43.47
2019-01-23T10:10:41.408Z,43.30
2019-01-23T10:13:07.415Z,42.77
2019-01-23T10:15:37.107Z,43.07
2019-01-23T10:18:02.966Z,42.50
2019-01-23T10:20:28.900Z,42.10
2019-01-23T10:22:54.869Z,44.77
2019-01-23T10:25:20.859Z,44.97
2019-01-23T10:27:46.774Z,42.93
2019-01-23T10:30:13.526Z,44.87
2019-01-23T10:32:39.467Z,42.73
2019-01-23T10:35:08.908Z,42.60
2019-01-23T10:37:34.769Z,40.93
2019-01-23T10:40:00.669Z,41.57
2019-01-23T10:42:26.553Z,37.53
2019-01-23T10:44:52.436Z,36.47
2019-01-23T10:47:18.316Z,35.93
2019-01-23T10:49:44.186Z,38.53
2019-01-23T10:52:10.075Z,37.67
2019-01-23T10:54:35.987Z,37.43
2019-01-23T10:57:01.870Z,35.07
2019-01-23T10:59:27.734Z,33.67
2019-01-23T11:01:53.871Z,31.83
2019-01-23T11:04:19.984Z,31.73
2019-01-23T11:06:45.900Z,30.60
2019-01-23T11:09:11.831Z,30.80
2019-01-23T11:11:37.785Z,29.97
2019-01-23T11:14:03.664Z,28.80
2019-01-23T11:16:29.548Z,28.43
2019-01-23T11:18:55.420Z,27.20
2019-01-23T11:21:21.355Z,28.13
2019-01-23T11:23:47.249Z,26.93
2019-01-23T11:26:13.150Z,28.53
2019-01-23T11:28:38.978Z,28.10
2019-01-23T11:31:04.849Z,29.53
2019-01-23T11:33:30.748Z,28.10
2019-01-23T11:35:56.643Z,28.23
2019-01-23T11:38:22.592Z,27.87
2019-01-23T11:40:48.449Z,29.07
2019-01-23T11:43:14.328Z,27.90
2019-01-23T11:45:40.208Z,28.83
2019-01-23T11:48:06.124Z,28.83
2019-01-23T11:50:31.984Z,28.63
2019-01-23T11:52:57.833Z,28.50
2019-01-23T11:55:23.775Z,28.27
2019-01-23T11:57:49.644Z,28.70
2019-01-23T12:00:19.329Z,29.00
2019-01-23T12:02:45.250Z,28.03
2019-01-23T12:05:13.241Z,28.80
2019-01-23T12:07:39.106Z,29.40
2019-01-23T12:10:08.804Z,27.00
2019-01-23T12:12:34.678Z,26.87
2019-01-23T12:15:00.608Z,27.57
2019-01-23T12:17:26.564Z,28.60
2019-01-23T12:19:52.433Z,29.67
2019-01-23T12:22:18.321Z,29.77
2019-01-23T12:24:44.229Z,28.53
2019-01-23T12:27:10.183Z,28.83
2019-01-23T12:29:36.037Z,29.03
2019-01-23T12:32:01.908Z,30.43
2019-01-23T12:34:27.792Z,29.67
2019-01-23T12:36:53.684Z,30.17
2019-01-23T12:39:23.708Z,29.60
2019-01-23T12:41:49.572Z,29.53
2019-01-23T12:44:15.456Z,30.37
2019-01-23T12:46:41.393Z,31.47
2019-01-23T12:49:07.319Z,30.00
2019-01-23T12:51:33.234Z,29.13
2019-01-23T12:53:59.135Z,28.97
2019-01-23T12:56:25.001Z,28.27
2019-01-23T12:58:50.998Z,29.60
2019-01-23T13:01:16.946Z,28.03
2019-01-23T13:03:42.905Z,25.97
2019-01-23T13:06:08.829Z,25.97
2019-01-23T13:08:34.830Z,28.30
2019-01-23T13:11:00.717Z,27.07
2019-01-23T13:13:26.661Z,24.77
2019-01-23T13:15:52.527Z,24.80
2019-01-23T13:18:18.516Z,26.37
2019-01-23T13:20:44.396Z,24.80
2019-01-23T13:23:10.305Z,23.43
2019-01-23T13:25:36.205Z,24.73
2019-01-23T13:28:02.199Z,24.20
2019-01-23T13:30:28.090Z,24.37
2019-01-23T13:32:53.952Z,25.43
2019-01-23T13:35:32.061Z,25.70
2019-01-23T13:37:58.332Z,26.37
2019-01-23T13:40:30.556Z,27.50
2019-01-23T13:42:56.515Z,26.53
2019-01-23T13:45:22.372Z,26.27
2019-01-23T13:47:48.251Z,27.47
2019-01-23T13:50:14.256Z,25.97
2019-01-23T13:52:40.105Z,25.73
2019-01-23T13:55:09.384Z,26.90
2019-01-23T13:57:35.334Z,28.67
2019-01-23T14:00:02.113Z,28.93
2019-01-23T14:02:27.971Z,28.70
2019-01-23T14:04:53.916Z,30.60
2019-01-23T14:07:19.794Z,30.83
2019-01-23T14:09:45.635Z,33.57
2019-01-23T14:12:11.566Z,30.83
2019-01-23T14:14:37.516Z,31.37
2019-01-23T14:17:03.373Z,31.37
2019-01-23T14:19:29.248Z,31.03
2019-01-23T14:21:55.338Z,31.47
2019-01-23T14:24:21.494Z,31.07
2019-01-23T14:26:47.357Z,33.53
2019-01-23T14:29:13.228Z,32.70
2019-01-23T14:31:39.129Z,31.13
2019-01-23T14:34:05.228Z,31.87
2019-01-23T14:36:31.102Z,33.17
2019-01-23T14:38:56.963Z,33.40
2019-01-23T14:41:22.963Z,32.23
2019-01-23T14:43:48.819Z,32.83
2019-01-23T14:46:14.703Z,34.40
2019-01-23T14:48:40.589Z,31.90
2019-01-23T14:51:06.459Z,31.63
2019-01-23T14:53:32.369Z,31.77
2019-01-23T14:55:58.237Z,31.23
2019-01-23T14:58:24.100Z,31.63
2019-01-23T15:00:50.030Z,31.23
2019-01-23T15:03:15.927Z,31.27
2019-01-23T15:05:41.782Z,31.13
2019-01-23T15:08:07.737Z,30.27
2019-01-23T15:10:33.587Z,30.77
2019-01-23T15:12:59.449Z,31.80
2019-01-23T15:15:25.350Z,31.97
2019-01-23T15:17:51.997Z,29.87
2019-01-23T15:20:22.965Z,30.30
2019-01-23T15:22:48.869Z,31.13
2019-01-23T15:25:14.747Z,31.33
2019-01-23T15:27:40.604Z,31.53
2019-01-23T15:30:10.346Z,33.03
2019-01-23T15:32:36.232Z,31.57
2019-01-23T15:35:04.625Z,30.30
2019-01-23T15:37:30.512Z,29.50
2019-01-23T15:39:56.469Z,31.20
2019-01-23T15:42:26.303Z,33.90
2019-01-23T15:44:52.185Z,32.57
2019-01-23T15:47:18.129Z,34.77
2019-01-23T15:49:44.027Z,31.77
2019-01-23T15:52:09.965Z,32.03
2019-01-23T15:54:36.012Z,33.50
2019-01-23T15:57:01.868Z,32.47
2019-01-23T15:59:27.741Z,33.40
2019-01-23T16:01:53.732Z,33.57
2019-01-23T16:04:19.654Z,33.73
2019-01-23T16:06:45.663Z,32.70
2019-01-23T16:09:11.568Z,31.10
2019-01-23T16:11:37.583Z,32.67
2019-01-23T16:14:03.528Z,30.90
2019-01-23T16:16:29.460Z,33.80
2019-01-23T16:18:55.383Z,33.77
2019-01-23T16:21:21.388Z,34.90
2019-01-23T16:23:47.270Z,33.43
2019-01-23T16:26:13.306Z,33.80
2019-01-23T16:28:39.236Z,30.87
2019-01-23T16:31:05.110Z,29.70
2019-01-23T16:33:30.988Z,29.67
2019-01-23T16:35:56.978Z,30.13
2019-01-23T16:38:22.883Z,28.80
2019-01-23T16:40:48.814Z,29.87
2019-01-23T16:43:14.705Z,29.40
2019-01-23T16:45:40.588Z,29.33
2019-01-23T16:48:06.485Z,28.93
2019-01-23T16:50:32.364Z,29.93
2019-01-23T16:52:58.247Z,30.00
2019-01-23T16:55:24.137Z,28.03
2019-01-23T16:57:50.576Z,30.60
2019-01-23T17:00:18.633Z,30.63
2019-01-23T17:02:44.503Z,30.13
2019-01-23T17:05:19.221Z,30.07
2019-01-23T17:07:45.113Z,29.67
2019-01-23T17:10:16.459Z,30.80
2019-01-23T17:12:42.447Z,32.30
2019-01-23T17:15:09.650Z,30.77
2019-01-23T17:17:35.510Z,31.43
2019-01-23T17:20:01.416Z,32.43
2019-01-23T17:22:27.292Z,30.13
2019-01-23T17:24:53.165Z,30.33
2019-01-23T17:27:19.093Z,31.57
2019-01-23T17:29:44.968Z,32.20
2019-01-23T17:32:10.934Z,31.43
2019-01-23T17:34:36.860Z,32.00
2019-01-23T17:37:02.751Z,32.33
2019-01-23T17:39:28.648Z,31.93
2019-01-23T17:41:54.918Z,32.30
2019-01-23T17:44:20.890Z,33.03
2019-01-23T17:46:47.075Z,33.07
2019-01-23T17:49:13.311Z,31.87
2019-01-23T17:51:39.652Z,32.73
2019-01-23T17:54:05.513Z,32.93
2019-01-23T17:56:31.377Z,33.03
2019-01-23T17:58:57.473Z,33.20
2019-01-23T18:01:23.450Z,32.33
2019-01-23T18:03:49.308Z,36.10
2019-01-23T18:06:15.247Z,33.33
2019-01-23T18:08:41.225Z,32.70
2019-01-23T18:11:07.107Z,32.50
2019-01-23T18:13:32.984Z,33.07
2019-01-23T18:16:00.972Z,34.90
2019-01-23T18:18:26.851Z,33.83
2019-01-23T18:20:52.725Z,34.93
2019-01-23T18:23:18.651Z,34.10
2019-01-23T18:25:44.548Z,33.50
2019-01-23T18:28:10.467Z,34.97
2019-01-23T18:30:46.174Z,33.20
2019-01-23T18:33:15.868Z,32.73
2019-01-23T18:36:00.837Z,33.97
2019-01-23T18:38:39.405Z,35.87
2019-01-23T18:41:18.196Z,35.60
2019-01-23T18:43:56.869Z,38.70
2019-01-23T18:46:58.943Z,37.33
2019-01-23T18:49:51.671Z,37.50
2019-01-23T18:52:17.692Z,36.60
2019-01-23T18:54:43.614Z,40.78
2019-01-23T18:57:21.940Z,38.77
2019-01-23T18:59:47.798Z,38.50
2019-01-23T19:02:13.660Z,39.00
2019-01-23T19:04:39.637Z,39.40
2019-01-23T19:07:05.495Z,39.43
2019-01-23T19:09:31.604Z,41.33
2019-01-23T19:11:57.469Z,42.17
2019-01-23T19:14:24.606Z,41.73
2019-01-23T19:16:50.636Z,42.60
2019-01-23T19:19:16.644Z,41.73
2019-01-23T19:21:42.492Z,45.43
2019-01-23T19:24:08.365Z,43.93
2019-01-23T19:26:34.341Z,44.90
2019-01-23T19:29:00.245Z,44.03
2019-01-23T19:31:26.255Z,43.43
2019-01-23T19:33:52.256Z,41.33
2019-01-23T19:36:18.218Z,44.63
2019-01-23T19:38:44.965Z,42.80
2019-01-23T19:41:10.896Z,42.47
2019-01-23T19:43:36.822Z,47.17
2019-01-23T19:46:02.705Z,43.07
2019-01-23T19:48:31.475Z,43.67
2019-01-23T19:50:57.417Z,45.13
2019-01-23T19:53:23.314Z,43.93
2019-01-23T19:55:49.204Z,45.40
2019-01-23T19:58:15.184Z,43.93
2019-01-23T20:00:41.105Z,46.50
2019-01-23T20:03:07.073Z,44.70
2019-01-23T20:05:34.505Z,45.07
2019-01-23T20:08:00.454Z,47.03
2019-01-23T20:10:26.380Z,46.57
2019-01-23T20:12:52.828Z,46.57
2019-01-23T20:15:20.156Z,44.57
2019-01-23T20:17:48.016Z,44.67
2019-01-23T20:20:14.561Z,47.80
2019-01-23T20:22:40.629Z,44.67
2019-01-23T20:25:09.909Z,45.77
2019-01-23T20:27:35.912Z,46.53
2019-01-23T20:30:04.113Z,46.33
2019-01-23T20:32:30.022Z,45.43
2019-01-23T20:34:55.917Z,47.03
2019-01-23T20:37:24.952Z,47.80
2019-01-23T20:39:50.838Z,47.77
2019-01-23T20:42:16.735Z,46.03
2019-01-23T20:44:42.756Z,49.57
2019-01-23T20:47:08.678Z,46.43
2019-01-23T20:49:34.575Z,47.23
2019-01-23T20:52:00.485Z,48.30
2019-01-23T20:54:26.361Z,48.73
2019-01-23T20:56:52.305Z,47.93
2019-01-23T20:59:18.192Z,48.80
2019-01-23T21:01:44.155Z,47.50
2019-01-23T21:04:10.062Z,50.83
2019-01-23T21:06:35.955Z,47.73
2019-01-23T21:09:02.191Z,48.77
2019-01-23T21:11:28.043Z,48.77
2019-01-23T21:13:53.911Z,46.60
2019-01-23T21:16:19.785Z,50.17
2019-01-23T21:18:45.667Z,51.00
2019-01-23T21:21:11.745Z,51.43
2019-01-23T21:23:37.622Z,51.37
2019-01-23T21:26:03.484Z,50.63
2019-01-23T21:28:29.411Z,48.87
2019-01-23T21:30:55.318Z,48.03
2019-01-23T21:33:21.182Z,49.70
2019-01-23T21:35:47.094Z,52.73
2019-01-23T21:38:12.939Z,49.57
2019-01-23T21:40:39.223Z,54.00
2019-01-23T21:43:05.150Z,53.60
2019-01-23T21:45:31.000Z,50.57
2019-01-23T21:47:57.836Z,52.80
2019-01-23T21:50:27.359Z,53.27
2019-01-23T21:52:53.220Z,52.80
2019-01-23T21:55:20.872Z,53.83
2019-01-23T21:57:46.737Z,51.90
2019-01-23T22:00:30.744Z,52.27
2019-01-23T22:02:58.589Z,55.20
2019-01-23T22:05:24.493Z,52.47
2019-01-23T22:07:50.361Z,51.83
2019-01-23T22:10:16.230Z,49.37
2019-01-23T22:12:42.224Z,50.53
2019-01-23T22:15:16.908Z,52.20
2019-01-23T22:17:42.805Z,52.00
2019-01-23T22:20:17.131Z,52.53
2019-01-23T22:22:43.007Z,51.77
2019-01-23T22:25:10.573Z,51.67
2019-01-23T22:27:36.456Z,51.57
2019-01-23T22:30:05.852Z,50.97
2019-01-23T22:32:31.913Z,54.80
2019-01-23T22:34:57.776Z,55.13
2019-01-23T22:37:23.665Z,54.40
2019-01-23T22:39:49.568Z,51.77
2019-01-23T22:42:15.483Z,55.03
2019-01-23T22:44:41.391Z,56.43
2019-01-23T22:47:07.274Z,55.53
2019-01-23T22:49:33.110Z,53.97
2019-01-23T22:51:59.067Z,52.87
2019-01-23T22:54:24.966Z,56.50
2019-01-23T22:56:50.836Z,53.87
2019-01-23T22:59:16.717Z,54.87
2019-01-23T23:01:42.759Z,54.40
2019-01-23T23:04:08.643Z,55.90
2019-01-23T23:06:34.507Z,54.67
2019-01-23T23:09:00.878Z,56.07
2019-01-23T23:11:26.800Z,53.17
2019-01-23T23:13:52.802Z,53.50
2019-01-23T23:16:18.769Z,55.43
2019-01-23T23:18:44.652Z,55.37
2019-01-23T23:21:10.585Z,56.70
2019-01-23T23:23:36.465Z,53.60
2019-01-23T23:26:02.322Z,55.30
2019-01-23T23:28:28.240Z,58.57
2019-01-23T23:30:54.240Z,55.80
2019-01-23T23:33:20.144Z,56.13
2019-01-23T23:35:46.059Z,56.43
2019-01-23T23:38:11.940Z,55.07
2019-01-23T23:40:37.778Z,54.10
2019-01-23T23:43:03.700Z,55.33
2019-01-23T23:45:29.673Z,54.63
2019-01-23T23:47:55.553Z,51.83
2019-01-23T23:50:21.451Z,54.17
2019-01-23T23:52:50.647Z,50.77
2019-01-23T23:55:16.507Z,51.63
2019-01-23T23:57:42.490Z,51.97
